Marshall Army Air Field
KFRI : now visible

Airfield :











YOU CAN JOIN US ON...

 
LOGIN :

Register | Disclaimer

   EN    FR    IT 

 









Legend :    VFR   Marginal VFR   IFR   Intensive IFR   Very Intensive IFR
Visi :
Ceiling :
>= 8 km
>= 3000ft
5 to 8 km
1000 to 3000 ft
1500m to 5 km
500 to 1000 ft
800 to 1500m
200 to 500 ft
< 800m
< 200 ft
Symbols :   Thunderstorms  Fog  Heavy snow  Heavy precipitations  Wind > 20 kt







- Airport Elevation : 1065 ft


KFRI - Marshall Army Air Field

CURRENT METAR :
  • 162156Z AUTO 17012KT 10SM CLR 34/19 A2997 RMK AO2 SLP136 T03350188

EXPIRED METARs :
  • 162056Z AUTO 17009KT 10SM CLR 34/19 A2998 RMK AO2 SLP139 T03420190 57021
  • 161956Z AUTO 20012G18KT 10SM CLR 34/19 A3000 RMK AO2 SLP146 T03370193

TAF TAF KFRI
Valid from the 16 at 21:00 until the 18 at 03:00 UTC


162100Z 1621/1803 19012KT 9999 BKN250 QNH2998INS
BECMG 1700/1701 16009KT 9999 FEW250 QNH3000INS
BECMG 1716/1717 20012G18KT 9999 FEW250 QNH2986INS
BECMG 1800/1801 21009KT 9999 FEW250 QNH2987INS TX34/1721Z TN23/1712Z
No reported NOTAMs for that airfield.



MET'MAP, your aeronautical weather chart ! - Copyright ORBIFLY December 2007 - Disclaimer

ORBIFLY MET'MAP TEAM :

Programming & Development : Alexandra Zaïnal
Concept & Development : Baudouin d'Aumeries
Co-Development & Prog : Marc-Olivier Méhu
Technical & hardware support : Manuel Goepfert

Contact : metmap@orbifly.com




SOURCES & CREDITS :

   NOAA       Earth
Advisory